Flight Track Log - Related Links

Times and Time Zones

All times are in EDT time to prevent confusion due to time zone crossing. See the N725QS flight status page for this flight to view local times or setup timezone preferences in your user account.

Time Position Orientation Groundspeed Altitude Reporting Facility
EDT Latitude Longitude Course Direction KTS MPH feet Rate Location/Type
Fri 11:36:15 AM 30.2423 -97.4988 192° South  Level FlightAware Approximate
Fri 11:37:31 AM 30.1592 -97.5186 54° Northeast 304 350 9,100  Level Houston Center
Fri 11:38:31 AM 30.2150 -97.4306 54° Northeast 325 374 11,600 2,607 Climbing Houston Center
Fri 11:39:33 AM 30.2756 -97.3331 55° Northeast 356 410 14,400 2,955 Climbing Houston Center
Fri 11:40:43 AM 30.3428 -97.2211 86° East 380 437 18,100 3,092 Climbing Houston Center
Fri 11:41:43 AM 30.3500 -97.0917 93° East 386 444 21,100 2,900 Climbing Houston Center
Fri 11:42:43 AM 30.3431 -96.9519 83° East 386 444 23,900 2,650 Climbing Houston Center
Fri 11:43:43 AM 30.3567 -96.8181 82° East 405 466 26,400 2,500 Climbing Houston Center
Fri 11:44:43 AM 30.3744 -96.6794 84° East 422 486 28,900 2,250 Climbing Houston Center
Fri 11:45:43 AM 30.3878 -96.5428 62° Northeast 422 486 30,900 1,750 Climbing Houston Center
Fri 11:46:43 AM 30.4442 -96.4203 49° Northeast 434 499 32,400 1,500 Climbing Houston Center
Fri 11:47:43 AM 30.5272 -96.3108 48° Northeast 434 499 33,900 1,500 Climbing Houston Center
Fri 11:48:43 AM 30.6125 -96.2014 41° Northeast 447 514 35,400 1,500 Climbing Houston Center
Fri 11:49:43 AM 30.7075 -96.1044 38° Northeast 447 514 36,900 1,400 Climbing Houston Center
Fri 11:50:43 AM 30.8000 -96.0189 39° Northeast 442 509 38,200 1,050 Climbing Houston Center
Fri 11:51:43 AM 30.8967 -95.9264 40° Northeast 442 509 39,000 384 Climbing Houston Center
Fri 11:52:48 AM 31.0008 -95.8261 39° Northeast 467 537 39,000  Level Fort Worth Center
Fri 11:53:48 AM 31.1122 -95.7197 38° Northeast 480 552 39,000  Level Fort Worth Center
Fri 11:54:48 AM 31.2172 -95.6231 38° Northeast 480 552 39,000  Level Fort Worth Center
Fri 11:55:48 AM 31.3183 -95.5289 39° Northeast 474 545 39,000  Level Fort Worth Center
Fri 11:56:48 AM 31.4233 -95.4292 39° Northeast 474 545 39,000  Level Fort Worth Center
Fri 11:57:48 AM 31.5239 -95.3319 37° Northeast 474 545 39,000  Level Fort Worth Center
Fri 11:58:48 AM 31.6269 -95.2419 39° Northeast 462 532 39,000  Level Fort Worth Center
Fri 11:59:48 AM 31.7317 -95.1419 40° Northeast 467 537 39,000  Level Fort Worth Center
Fri 12:00:48 PM 31.8342 -95.0414 39° Northeast 472 543 39,000  Level Fort Worth Center
Fri 12:01:48 PM 31.9367 -94.9433 40° Northeast 472 543 39,000  Level Fort Worth Center
Fri 12:02:48 PM 32.0389 -94.8425 40° Northeast 472 543 39,000  Level Fort Worth Center
Fri 12:03:48 PM 32.1372 -94.7467 41° Northeast 467 537 39,000  Level Fort Worth Center
Fri 12:04:48 PM 32.2353 -94.6456 39° Northeast 467 537 39,000  Level Fort Worth Center
Fri 12:05:48 PM 32.3372 -94.5464 40° Northeast 467 537 39,000  Level Fort Worth Center
Fri 12:06:48 PM 32.4394 -94.4447 39° Northeast 467 537 39,000  Level Fort Worth Center
Fri 12:07:48 PM 32.5433 -94.3453 39° Northeast 472 543 39,000  Level Fort Worth Center
Fri 12:08:48 PM 32.6475 -94.2456 40° Northeast 472 543 39,000  Level Fort Worth Center
Fri 12:09:48 PM 32.7492 -94.1431 40° Northeast 472 543 39,000  Level Fort Worth Center
Fri 12:10:48 PM 32.8508 -94.0431 40° Northeast 472 543 39,000  Level Fort Worth Center
Fri 12:11:48 PM 32.9525 -93.9400 41° Northeast 472 543 39,000  Level Fort Worth Center
Fri 12:12:48 PM 33.0519 -93.8372 44° Northeast 472 543 39,000  Level Fort Worth Center
Fri 12:13:48 PM 33.1508 -93.7239 43° Northeast 472 543 39,000  Level Fort Worth Center
Fri 12:15:55 PM 33.3592 -93.4911 44° Northeast 465 535 39,000  Level Memphis Center
Fri 12:16:55 PM 33.4558 -93.3800 44° Northeast 465 535 39,000  Level Memphis Center
Fri 12:17:55 PM 33.5544 -93.2661 44° Northeast 477 549 39,000  Level Memphis Center
Fri 12:18:55 PM 33.6511 -93.1547 43° Northeast 477 549 39,000  Level Memphis Center
Fri 12:19:55 PM 33.7494 -93.0428 44° Northeast 477 549 39,000  Level Memphis Center
Fri 12:20:55 PM 33.8478 -92.9283 43° Northeast 477 549 39,000  Level Memphis Center
Fri 12:21:55 PM 33.9439 -92.8186 45° Northeast 477 549 39,000  Level Memphis Center
Fri 12:22:55 PM 34.0381 -92.7058 46° Northeast 477 549 39,000  Level Memphis Center
Fri 12:23:55 PM 34.1297 -92.5931 44° Northeast 472 543 39,000  Level Memphis Center
Fri 12:24:55 PM 34.2258 -92.4800 45° Northeast 472 543 39,000  Level Memphis Center
Fri 12:25:55 PM 34.3214 -92.3642 45° Northeast 477 549 39,000  Level Memphis Center
Fri 12:26:55 PM 34.4150 -92.2503 44° Northeast 477 549 39,000  Level Memphis Center
Fri 12:27:55 PM 34.5128 -92.1342 45° Northeast 477 549 39,000  Level Memphis Center
Fri 12:28:55 PM 34.6061 -92.0200 45° Northeast 477 549 39,000  Level Memphis Center
Fri 12:29:55 PM 34.6994 -91.9056 44° Northeast 477 549 39,000  Level Memphis Center
Fri 12:30:55 PM 34.7947 -91.7936 45° Northeast 477 549 39,000  Level Memphis Center
Fri 12:31:55 PM 34.8897 -91.6786 45° Northeast 477 549 39,000  Level Memphis Center
Fri 12:32:55 PM 34.9828 -91.5661 45° Northeast 477 549 39,000  Level Memphis Center
Fri 12:33:55 PM 35.0797 -91.4483 46° Northeast 477 549 39,000  Level Memphis Center
Fri 12:34:55 PM 35.1725 -91.3325 45° Northeast 477 549 39,000  Level Memphis Center
Fri 12:35:55 PM 35.2672 -91.2167 45° Northeast 477 549 39,000  Level Memphis Center
Fri 12:36:55 PM 35.3619 -91.1006 43° Northeast 477 549 39,000  Level Memphis Center
Fri 12:37:55 PM 35.4522 -90.9969 45° Northeast 482 555 39,000  Level Memphis Center
Fri 12:38:55 PM 35.5444 -90.8828 45° Northeast 482 555 39,000  Level Memphis Center
Fri 12:39:55 PM 35.6428 -90.7633 48° Northeast 489 563 39,000  Level Memphis Center
Fri 12:40:55 PM 35.7286 -90.6461 47° Northeast 472 543 39,000  Level Memphis Center
Fri 12:41:55 PM 35.8208 -90.5233 62° Northeast 472 543 39,000  Level Memphis Center
Fri 12:42:55 PM 35.8856 -90.3750 65° Northeast 478 550 39,000  Level Memphis Center
Fri 12:43:55 PM 35.9439 -90.2236 62° Northeast 483 556 39,000  Level Memphis Center
Fri 12:44:55 PM 36.0081 -90.0722 65° Northeast 483 556 39,000  Level Memphis Center
Fri 12:45:55 PM 36.0661 -89.9178 64° Northeast 488 562 39,000  Level Memphis Center
Fri 12:46:55 PM 36.1258 -89.7633 65° Northeast 488 562 39,000  Level Memphis Center
Fri 12:47:55 PM 36.1833 -89.6114 65° Northeast 488 562 39,000  Level Memphis Center
Fri 12:48:55 PM 36.2428 -89.4511 66° East 488 562 39,000  Level Memphis Center
Fri 12:49:55 PM 36.3000 -89.2908 64° Northeast 488 562 39,000  Level Memphis Center
Fri 12:50:55 PM 36.3650 -89.1275 64° Northeast 501 577 39,000  Level Memphis Center
Fri 12:51:55 PM 36.4261 -88.9744 65° Northeast 507 583 39,000  Level Memphis Center
Fri 12:52:55 PM 36.4867 -88.8161 64° Northeast 507 583 39,000  Level Memphis Center
Fri 12:53:55 PM 36.5472 -88.6600 65° Northeast 507 583 39,000  Level Memphis Center
Fri 12:54:55 PM 36.6075 -88.5011 66° East 502 578 39,000  Level Memphis Center
Fri 12:55:55 PM 36.6633 -88.3419 65° Northeast 502 578 39,000  Level Memphis Center
Fri 12:56:55 PM 36.7231 -88.1850 67° East 502 578 39,000  Level Memphis Center
Fri 12:57:55 PM 36.7844 -88.0072 65° Northeast 502 578 39,000  Level Memphis Center
Fri 12:58:55 PM 36.8439 -87.8500 66° East 507 583 39,000  Level Memphis Center
Fri 12:59:55 PM 36.9011 -87.6900 67° East 501 577 39,000  Level Memphis Center
Fri 01:00:55 PM 36.9519 -87.5428 61° Northeast 501 577 39,000  Level Memphis Center
Fri 01:01:55 PM 37.0192 -87.3897 57° Northeast 501 577 39,000  Level Memphis Center
Fri 01:02:55 PM 37.0950 -87.2439 58° Northeast 501 577 39,000  Level Memphis Center
Fri 01:05:11 PM 37.2694 -86.8950 57° Northeast 496 571 39,000  Level Indianapolis Center
Fri 01:06:11 PM 37.3467 -86.7444 59° Northeast 503 579 39,000  Level Indianapolis Center
Fri 01:07:11 PM 37.4108 -86.6111 59° Northeast 503 579 39,000  Level Indianapolis Center
Fri 01:08:11 PM 37.4836 -86.4597 57° Northeast 503 579 39,000  Level Indianapolis Center
Fri 01:09:11 PM 37.5581 -86.3133 61° Northeast 508 585 39,000  Level Indianapolis Center
Fri 01:10:11 PM 37.6261 -86.1611 58° Northeast 503 579 39,000  Level Indianapolis Center
Fri 01:11:11 PM 37.7003 -86.0114 58° Northeast 503 579 39,000  Level Indianapolis Center
Fri 01:12:11 PM 37.7742 -85.8589 59° Northeast 503 579 39,000  Level Indianapolis Center
Fri 01:13:11 PM 37.8458 -85.7083 59° Northeast 503 579 39,000  Level Indianapolis Center
Fri 01:14:11 PM 37.9153 -85.5603 57° Northeast 503 579 39,000  Level Indianapolis Center
Fri 01:15:11 PM 37.9908 -85.4097 59° Northeast 503 579 39,000  Level Indianapolis Center
Fri 01:16:11 PM 38.0619 -85.2611 60° Northeast 498 573 39,000  Level Indianapolis Center
Fri 01:17:11 PM 38.1392 -85.0939 58° Northeast 498 573 39,000  Level Indianapolis Center
Fri 01:18:11 PM 38.2119 -84.9447 60° Northeast 493 567 39,000  Level Indianapolis Center
Fri 01:19:11 PM 38.2783 -84.7953 59° Northeast 488 562 39,000  Level Indianapolis Center
Fri 01:20:11 PM 38.3508 -84.6428 60° Northeast 493 567 39,000 -33 Level Indianapolis Center
Fri 01:22:11 PM 38.4844 -84.3478 60° Northeast 504 580 38,900 -433 Descending Indianapolis Center
Fri 01:23:11 PM 38.5542 -84.1944 58° Northeast 504 580 37,700 -1,150 Descending Indianapolis Center
Fri 01:24:11 PM 38.6281 -84.0408 61° Northeast 504 580 36,600 -1,150 Descending Indianapolis Center
Fri 01:25:11 PM 38.6911 -83.8975 62° Northeast 481 554 35,400 -1,250 Descending Indianapolis Center
Fri 01:26:11 PM 38.7539 -83.7486 59° Northeast 474 545 34,100 -1,200 Descending Indianapolis Center
Fri 01:27:11 PM 38.8208 -83.6050 60° Northeast 474 545 33,000 -550 Descending Indianapolis Center
Fri 01:28:11 PM 38.8875 -83.4556 61° Northeast 466 536 33,000  Level Indianapolis Center
Fri 01:29:11 PM 38.9542 -83.3033 58° Northeast 471 542 33,000  Level Indianapolis Center
Fri 01:30:11 PM 39.0244 -83.1561 63° Northeast 477 549 33,000 -600 Level Indianapolis Center
Fri 01:31:11 PM 39.0886 -82.9925 69° East 488 562 31,800 -1,550 Descending Indianapolis Center
Fri 01:32:11 PM 39.1417 -82.8181 75° East 502 578 29,900 -1,900 Descending Indianapolis Center
Fri 01:33:11 PM 39.1800 -82.6381 77° East 513 590 28,000 -1,900 Descending Indianapolis Center
Fri 01:34:11 PM 39.2119 -82.4528 78° East 526 605 26,100 -1,750 Descending Indianapolis Center
Fri 01:35:11 PM 39.2414 -82.2756 77° East 520 598 24,500 -1,550 Descending Indianapolis Center
Fri 01:36:11 PM 39.2728 -82.0978 59° Northeast 509 586 23,000 -1,550 Descending Indianapolis Center
Fri 01:37:11 PM 39.3397 -81.9542 52° Northeast 484 557 21,400 -1,000 Descending Indianapolis Center
Fri 01:38:11 PM 39.4211 -81.8206 51° Northeast 466 536 21,000 -200 Descending Indianapolis Center
Fri 01:39:11 PM 39.5025 -81.6894 53° Northeast 466 536 21,000  Level Indianapolis Center
Fri 01:40:11 PM 39.5817 -81.5553 53° Northeast 461 531 21,000  Level Indianapolis Center
Fri 01:41:12 PM 39.6703 -81.4003 52° Northeast 453 521 21,000 -942 Level Cleveland Center
Fri 01:42:12 PM 39.7503 -81.2689 52° Northeast 453 521 19,100 -1,800 Descending Cleveland Center
Fri 01:43:12 PM 39.8239 -81.1453 52° Northeast 448 516 17,400 -1,800 Descending Cleveland Center
Fri 01:44:12 PM 39.8953 -81.0242 51° Northeast 436 502 15,500 -1,800 Descending Cleveland Center
Fri 01:45:12 PM 39.9644 -80.9108 51° Northeast 415 478 13,800 -1,700 Descending Cleveland Center
Fri 01:46:12 PM 40.0314 -80.8028 45° Northeast 403 464 12,100 -1,600 Descending Cleveland Center
Fri 01:47:12 PM 40.1047 -80.7053 72° East 383 441 10,600 -1,100 Descending Cleveland Center
Fri 01:48:12 PM 40.1358 -80.5803 75° East 347 399 9,900 -600 Descending Cleveland Center
Fri 01:49:12 PM 40.1589 -80.4689 74° East 341 392 9,400 -750 Descending Cleveland Center
Fri 01:50:12 PM 40.1817 -80.3631 80° East 318 366 8,400 -1,100 Descending Cleveland Center
Fri 01:51:12 PM 40.1958 -80.2597 81° East 297 342 7,200 -1,350 Descending Cleveland Center
Fri 01:52:12 PM 40.2081 -80.1589 80° East 291 335 5,700 -1,500 Descending Cleveland Center
Fri 01:53:12 PM 40.2203 -80.0639 81° East 273 314 4,200 -1,350 Descending Cleveland Center
Fri 01:54:12 PM 40.2322 -79.9658 58° Northeast 273 314 3,000 -600 Descending Cleveland Center
Fri 01:55:12 PM 40.2653 -79.8975 58° Northeast 249 287 3,000  Level Cleveland Center

Login

Don't have an account? Register now (free) for customized features, flight alerts, and more!